Time;durP1;ratioP1;P1;durP2;ratioP2;P2;SDS_P1;SDS_P2;PMS_P1;PMS_P2;Temp;Humidity;BMP_temperature;BMP_pressure;BME280_temperature;BME280_humidity;BME280_pressure;Samples;Min_cycle;Max_cycle;Signal;HPM_P1;HPM_P2
2022/07/13 00:01:25;;;;;;;8.05;5.82;;;23.50;70.80;;;;;;5015910;28;20123;-66
2022/07/13 00:03:52;;;;;;;8.20;6.15;;;23.50;71.00;;;;;;5015181;28;20033;-65
2022/07/13 00:06:18;;;;;;;9.20;6.03;;;23.40;70.90;;;;;;5015401;28;20026;-66
2022/07/13 00:08:44;;;;;;;8.25;6.28;;;23.40;71.20;;;;;;5015193;28;20041;-65
2022/07/13 00:11:10;;;;;;;9.98;6.43;;;23.40;71.50;;;;;;4994764;28;20105;-65
2022/07/13 00:13:35;;;;;;;8.82;6.47;;;23.40;71.60;;;;;;5009552;28;20042;-65
2022/07/13 00:16:01;;;;;;;11.50;6.97;;;23.40;71.80;;;;;;5015121;28;20030;-65
2022/07/13 00:18:26;;;;;;;8.70;6.22;;;23.30;72.00;;;;;;5014134;28;20038;-65
2022/07/13 00:20:52;;;;;;;9.80;6.60;;;23.30;72.30;;;;;;5015675;28;20088;-66
2022/07/13 00:23:18;;;;;;;10.13;6.80;;;23.30;72.50;;;;;;5013551;28;20026;-66
2022/07/13 00:25:44;;;;;;;9.40;7.07;;;23.30;72.70;;;;;;5014465;28;20117;-65
2022/07/13 00:28:09;;;;;;;9.15;6.68;;;23.20;72.90;;;;;;5020081;28;20116;-65
2022/07/13 00:30:35;;;;;;;9.20;6.88;;;23.20;73.10;;;;;;5028952;28;20064;-65
2022/07/13 00:33:01;;;;;;;8.57;6.18;;;23.20;73.20;;;;;;5019761;28;20037;-65
2022/07/13 00:35:26;;;;;;;8.23;6.60;;;23.20;73.40;;;;;;5028514;28;20455;-65
2022/07/13 00:37:52;;;;;;;8.80;5.88;;;23.10;74.10;;;;;;5011336;28;20088;-66
2022/07/13 00:40:18;;;;;;;10.68;7.15;;;23.10;73.60;;;;;;5025013;28;20488;-65
2022/07/13 00:42:43;;;;;;;9.18;6.75;;;23.10;73.80;;;;;;5032188;28;20455;-66
2022/07/13 00:45:09;;;;;;;8.35;6.55;;;23.10;73.80;;;;;;5022289;28;20029;-66
2022/07/13 00:47:36;;;;;;;10.07;6.63;;;23.10;73.80;;;;;;5033646;28;20044;-66
2022/07/13 00:50:06;;;;;;;8.77;6.60;;;23.10;73.80;;;;;;5024915;28;20030;-66
2022/07/13 00:52:32;;;;;;;10.95;6.85;;;23.10;73.80;;;;;;5022273;28;20045;-65
2022/07/13 00:54:58;;;;;;;10.63;7.43;;;23.10;73.80;;;;;;5034879;28;20513;-66
2022/07/13 00:57:26;;;;;;;9.77;7.28;;;23.00;73.70;;;;;;5032667;28;20030;-66
2022/07/13 00:59:53;;;;;;;8.82;6.90;;;23.00;73.80;;;;;;5023887;28;20029;-66
2022/07/13 01:02:18;;;;;;;9.57;7.18;;;23.00;73.80;;;;;;5031318;28;20084;-66
2022/07/13 01:04:44;;;;;;;9.40;6.95;;;23.00;73.80;;;;;;5020919;28;20030;-66
2022/07/13 01:07:10;;;;;;;9.38;7.18;;;23.00;73.80;;;;;;5017451;28;20414;-66
2022/07/13 01:09:37;;;;;;;9.07;6.80;;;23.00;73.90;;;;;;5017920;28;20018;-66
2022/07/13 01:12:05;;;;;;;9.30;6.78;;;23.00;74.10;;;;;;5031014;28;20052;-66
2022/07/13 01:14:30;;;;;;;11.13;7.43;;;23.00;74.20;;;;;;5023080;28;20030;-66
2022/07/13 01:16:57;;;;;;;9.02;6.63;;;22.90;74.30;;;;;;5019666;28;20034;-65
2022/07/13 01:19:23;;;;;;;9.45;7.38;;;22.90;74.30;;;;;;5025872;28;20025;-65
2022/07/13 01:21:57;;;;;;;9.43;7.40;;;22.90;74.40;;;;;;5020651;28;20033;-65
2022/07/13 01:24:23;;;;;;;9.93;6.53;;;22.90;74.50;;;;;;5012886;28;20026;-66
2022/07/13 01:26:49;;;;;;;8.93;7.10;;;22.90;74.50;;;;;;5017882;28;20053;-66
2022/07/13 01:29:14;;;;;;;9.27;7.00;;;22.80;74.50;;;;;;5018225;28;20025;-66
2022/07/13 01:31:41;;;;;;;9.88;6.38;;;22.80;75.30;;;;;;5019810;28;20033;-66
2022/07/13 01:34:08;;;;;;;9.55;6.82;;;22.80;74.80;;;;;;5023818;28;20033;-66
2022/07/13 01:36:35;;;;;;;8.65;6.68;;;22.90;74.90;;;;;;5025195;28;20030;-66
2022/07/13 01:39:02;;;;;;;9.68;6.90;;;22.90;75.00;;;;;;5018502;28;20041;-66
2022/07/13 01:41:31;;;;;;;8.80;6.45;;;22.90;75.00;;;;;;5032920;28;20029;-66
2022/07/13 01:43:57;;;;;;;8.52;6.63;;;22.80;75.00;;;;;;5020352;28;20053;-66
2022/07/13 01:46:24;;;;;;;8.52;6.38;;;22.80;75.10;;;;;;5028975;28;20021;-66
2022/07/13 01:48:51;;;;;;;9.18;6.88;;;22.80;75.10;;;;;;5017570;28;20026;-66
2022/07/13 01:51:17;;;;;;;8.32;5.97;;;22.90;75.30;;;;;;5017013;28;20332;-66
2022/07/13 01:53:43;;;;;;;9.05;6.68;;;22.80;75.20;;;;;;5021806;28;20080;-65
2022/07/13 01:56:09;;;;;;;9.40;6.90;;;22.90;75.20;;;;;;5031599;28;20330;-65
2022/07/13 01:58:35;;;;;;;8.52;6.57;;;22.90;75.20;;;;;;5023245;28;20033;-65
2022/07/13 02:01:01;;;;;;;9.60;6.07;;;22.90;75.00;;;;;;5028215;28;20446;-66
2022/07/13 02:03:30;;;;;;;9.27;6.47;;;22.80;74.90;;;;;;5020626;28;20076;-65
2022/07/13 02:05:57;;;;;;;9.90;6.07;;;22.90;75.00;;;;;;5021517;28;20095;-66
2022/07/13 02:08:26;;;;;;;9.07;6.28;;;22.90;75.00;;;;;;5023283;28;20063;-66
2022/07/13 02:10:52;;;;;;;8.75;6.25;;;22.90;74.90;;;;;;5011165;28;20113;-66
2022/07/13 02:13:19;;;;;;;9.40;6.22;;;22.80;74.90;;;;;;5026977;28;20116;-66
2022/07/13 02:15:46;;;;;;;8.25;5.95;;;22.90;74.90;;;;;;5025569;28;20819;-66
2022/07/13 02:18:13;;;;;;;7.30;5.57;;;22.80;75.00;;;;;;5022460;28;20029;-65
2022/07/13 02:20:38;;;;;;;9.30;5.95;;;22.80;75.00;;;;;;5025399;28;20079;-66
2022/07/13 02:23:05;;;;;;;8.43;6.20;;;22.80;75.00;;;;;;5027495;28;20124;-66
2022/07/13 02:25:33;;;;;;;8.73;5.47;;;22.80;75.20;;;;;;5020557;28;20022;-66
2022/07/13 02:27:58;;;;;;;8.05;5.63;;;22.80;75.30;;;;;;5028660;28;20022;-66
2022/07/13 02:30:24;;;;;;;8.07;6.10;;;22.80;75.30;;;;;;5015435;28;20465;-66
2022/07/13 02:32:51;;;;;;;9.45;6.28;;;22.80;75.40;;;;;;5016943;28;20108;-66
2022/07/13 02:35:16;;;;;;;8.43;5.95;;;22.80;75.50;;;;;;5023909;28;20037;-66
2022/07/13 02:37:42;;;;;;;9.57;6.03;;;22.80;75.30;;;;;;5046776;28;20018;-66
2022/07/13 02:40:12;;;;;;;8.93;5.78;;;22.70;75.10;;;;;;5018570;28;20040;-66
2022/07/13 02:42:38;;;;;;;7.78;5.50;;;22.80;75.10;;;;;;5017813;28;20109;-66
2022/07/13 02:45:05;;;;;;;8.80;5.82;;;22.70;74.90;;;;;;5027201;28;20176;-66
2022/07/13 02:47:31;;;;;;;9.85;5.78;;;22.70;74.90;;;;;;5034953;28;20025;-66
2022/07/13 02:49:58;;;;;;;7.32;5.43;;;22.70;74.80;;;;;;5024599;28;20029;-65
2022/07/13 02:52:24;;;;;;;7.90;5.65;;;22.80;74.80;;;;;;5026210;28;20168;-66
2022/07/13 02:54:50;;;;;;;8.60;6.05;;;22.70;74.70;;;;;;5010109;28;20030;-66
2022/07/13 02:57:16;;;;;;;8.65;5.18;;;22.70;74.70;;;;;;5018809;28;20034;-66
2022/07/13 02:59:44;;;;;;;8.52;5.80;;;22.70;74.60;;;;;;5018600;28;20030;-66
2022/07/13 03:02:10;;;;;;;7.13;5.25;;;22.70;74.50;;;;;;5019039;28;20022;-66
2022/07/13 03:04:38;;;;;;;7.53;5.13;;;22.70;74.50;;;;;;5027294;28;20026;-66
2022/07/13 03:07:04;;;;;;;8.50;5.65;;;22.70;74.30;;;;;;5018109;28;20411;-66
2022/07/13 03:09:31;;;;;;;8.40;5.43;;;22.70;74.30;;;;;;5014076;28;20026;-66
2022/07/13 03:11:56;;;;;;;8.20;5.47;;;22.70;74.40;;;;;;5031777;28;20111;-66
2022/07/13 03:14:23;;;;;;;7.53;4.95;;;22.70;74.40;;;;;;5029232;28;20554;-66
2022/07/13 03:16:50;;;;;;;7.97;4.88;;;22.60;74.40;;;;;;5016036;28;20408;-65
2022/07/13 03:19:16;;;;;;;8.18;5.00;;;22.60;74.50;;;;;;5025964;28;20109;-66
2022/07/13 03:21:41;;;;;;;7.40;4.97;;;22.60;74.60;;;;;;5020006;28;20034;-66
2022/07/13 03:24:07;;;;;;;7.20;4.90;;;22.60;74.60;;;;;;5015042;28;20333;-61
2022/07/13 03:26:33;;;;;;;7.80;4.95;;;22.60;74.60;;;;;;5015369;28;20018;-61
2022/07/13 03:28:59;;;;;;;7.88;4.80;;;22.60;74.60;;;;;;5016056;28;20402;-61
2022/07/13 03:31:26;;;;;;;6.78;4.70;;;22.60;74.50;;;;;;5018404;28;20045;-62
2022/07/13 03:33:53;;;;;;;7.35;4.55;;;22.60;74.50;;;;;;5011135;28;20066;-61
2022/07/13 03:36:18;;;;;;;6.95;4.63;;;22.60;74.40;;;;;;5013872;28;20025;-61
2022/07/13 03:38:44;;;;;;;7.75;5.13;;;22.50;74.20;;;;;;4997447;28;20036;-61
2022/07/13 03:41:10;;;;;;;7.50;5.05;;;22.60;74.20;;;;;;5011807;28;20375;-62
2022/07/13 03:43:36;;;;;;;7.10;4.35;;;22.60;74.00;;;;;;5014828;28;20080;-61
2022/07/13 03:46:02;;;;;;;8.40;5.00;;;22.60;73.80;;;;;;5013433;28;20060;-61
2022/07/13 03:48:28;;;;;;;7.07;4.55;;;22.60;73.70;;;;;;5013156;28;20474;-61
2022/07/13 03:50:53;;;;;;;7.70;4.55;;;22.60;73.60;;;;;;5013800;28;20022;-61
2022/07/13 03:53:21;;;;;;;7.60;4.97;;;22.60;73.60;;;;;;5013308;28;20363;-61
2022/07/13 03:55:47;;;;;;;7.38;4.43;;;22.60;73.60;;;;;;5014966;28;20021;-61
2022/07/13 03:58:13;;;;;;;10.63;4.90;;;22.60;73.50;;;;;;5016342;28;20046;-61
2022/07/13 04:00:40;;;;;;;7.65;4.60;;;22.60;73.50;;;;;;5012966;28;20463;-62
2022/07/13 04:03:06;;;;;;;8.02;4.78;;;22.60;73.30;;;;;;5016017;28;20030;-61
2022/07/13 04:05:32;;;;;;;8.60;4.57;;;22.60;73.10;;;;;;5014079;28;20018;-61
2022/07/13 04:07:59;;;;;;;7.00;4.15;;;22.60;73.00;;;;;;5006794;28;20072;-61
2022/07/13 04:10:24;;;;;;;7.70;4.28;;;22.60;72.80;;;;;;5012556;28;20072;-61
2022/07/13 04:12:51;;;;;;;6.68;4.25;;;22.60;72.70;;;;;;5011332;28;20050;-61
2022/07/13 04:15:18;;;;;;;7.25;4.35;;;22.70;72.70;;;;;;5010763;28;20029;-61
2022/07/13 04:17:43;;;;;;;7.32;4.18;;;22.70;72.70;;;;;;5011992;28;20344;-61
2022/07/13 04:20:11;;;;;;;7.05;4.03;;;22.70;72.80;;;;;;5014650;28;20026;-61
2022/07/13 04:22:37;;;;;;;7.63;4.55;;;22.60;72.80;;;;;;5014936;28;20026;-61
2022/07/13 04:25:04;;;;;;;6.80;4.20;;;22.70;72.90;;;;;;5014169;28;20108;-61
2022/07/13 04:27:30;;;;;;;7.70;4.32;;;22.70;72.80;;;;;;5017407;28;20075;-61
2022/07/13 04:29:56;;;;;;;8.43;4.47;;;22.70;72.90;;;;;;5032001;28;20637;-61
2022/07/13 04:32:22;;;;;;;7.90;4.28;;;22.60;72.80;;;;;;4986134;28;20022;-61
2022/07/13 04:34:48;;;;;;;6.95;4.57;;;22.60;72.80;;;;;;5014383;28;20117;-61
2022/07/13 04:37:14;;;;;;;7.43;4.53;;;22.60;72.90;;;;;;5014971;28;20022;-60
2022/07/13 04:39:41;;;;;;;7.30;4.43;;;22.60;73.00;;;;;;5015047;28;20116;-61
2022/07/13 04:42:08;;;;;;;9.30;4.38;;;22.60;72.80;;;;;;5014622;28;20175;-61
2022/07/13 04:44:33;;;;;;;8.35;4.85;;;22.60;72.60;;;;;;5014416;28;20025;-61
2022/07/13 04:46:59;;;;;;;7.68;4.40;;;22.70;72.50;;;;;;5014241;28;20499;-61
2022/07/13 04:49:25;;;;;;;7.13;4.32;;;22.70;72.20;;;;;;5014253;28;20022;-61
2022/07/13 04:51:51;;;;;;;7.10;4.05;;;22.70;72.00;;;;;;5015097;28;20363;-61
2022/07/13 04:54:19;;;;;;;7.43;4.15;;;22.70;71.90;;;;;;5021421;28;20033;-61
2022/07/13 04:56:45;;;;;;;6.57;4.15;;;22.70;71.70;;;;;;5014439;28;20028;-61
2022/07/13 04:59:12;;;;;;;7.57;4.57;;;22.80;71.50;;;;;;5027919;28;20034;-62
2022/07/13 05:01:38;;;;;;;7.70;3.80;;;22.80;71.30;;;;;;5016892;28;20521;-62
2022/07/13 05:04:05;;;;;;;6.65;4.10;;;22.90;71.20;;;;;;5018529;28;20033;-62
2022/07/13 05:06:31;;;;;;;8.75;4.50;;;22.90;71.10;;;;;;5016267;28;20364;-62
2022/07/13 05:08:58;;;;;;;7.03;4.15;;;22.90;70.90;;;;;;5028932;28;20053;-62
2022/07/13 05:11:24;;;;;;;7.35;4.00;;;23.00;71.20;;;;;;5014647;28;20115;-62
2022/07/13 05:13:51;;;;;;;6.78;3.85;;;23.00;70.40;;;;;;5018940;28;20023;-61
2022/07/13 05:16:16;;;;;;;7.68;4.35;;;23.10;70.50;;;;;;4997036;28;20030;-62
2022/07/13 05:18:43;;;;;;;7.10;4.03;;;23.10;70.10;;;;;;5027507;28;20422;-62
2022/07/13 05:21:15;;;;;;;6.80;4.30;;;23.10;69.70;;;;;;5013742;28;20050;-61
2022/07/13 05:23:40;;;;;;;7.57;3.90;;;23.10;69.60;;;;;;5027063;28;20025;-61
2022/07/13 05:26:07;;;;;;;9.18;4.47;;;23.10;69.60;;;;;;5011996;28;20022;-61
2022/07/13 05:28:33;;;;;;;7.95;4.30;;;23.10;69.80;;;;;;5013734;28;20030;-61
2022/07/13 05:31:00;;;;;;;6.90;3.70;;;23.20;69.90;;;;;;5027543;28;20022;-62
2022/07/13 05:33:26;;;;;;;7.45;4.22;;;23.20;69.90;;;;;;5013498;28;20025;-61
2022/07/13 05:35:54;;;;;;;6.78;4.18;;;23.20;70.10;;;;;;5024575;28;20061;-62
2022/07/13 05:38:19;;;;;;;7.07;4.47;;;23.20;70.20;;;;;;5013747;28;20124;-62
2022/07/13 05:40:46;;;;;;;8.55;4.57;;;23.30;70.20;;;;;;5012891;28;20041;-61
2022/07/13 05:43:13;;;;;;;7.25;4.55;;;23.30;70.20;;;;;;5013938;28;20026;-62
2022/07/13 05:45:38;;;;;;;8.20;4.57;;;23.30;70.10;;;;;;5013454;28;20034;-62
2022/07/13 05:48:04;;;;;;;8.35;4.72;;;23.30;70.00;;;;;;5017336;28;20096;-62
2022/07/13 05:50:30;;;;;;;7.40;4.20;;;23.30;69.80;;;;;;5014892;28;20307;-62
2022/07/13 05:52:55;;;;;;;8.55;4.38;;;23.40;69.80;;;;;;5012051;28;20026;-62
2022/07/13 05:55:23;;;;;;;8.13;5.25;;;23.40;69.60;;;;;;5015443;28;20042;-62
2022/07/13 05:57:48;;;;;;;8.32;5.75;;;23.40;69.20;;;;;;5017969;28;20034;-62
2022/07/13 06:00:14;;;;;;;8.18;5.10;;;23.40;68.90;;;;;;5026069;28;20028;-61
2022/07/13 06:02:41;;;;;;;8.40;5.25;;;23.50;68.80;;;;;;5017793;28;20450;-62
2022/07/13 06:05:08;;;;;;;8.23;5.13;;;23.50;68.80;;;;;;5026196;28;20399;-62
2022/07/13 06:07:34;;;;;;;9.32;5.68;;;23.50;68.70;;;;;;5012203;28;20026;-62
2022/07/13 06:10:01;;;;;;;9.77;5.70;;;23.50;68.30;;;;;;5013556;28;20037;-62
2022/07/13 06:12:27;;;;;;;10.57;6.03;;;23.50;67.80;;;;;;5019887;28;20465;-63
2022/07/13 06:14:54;;;;;;;9.20;6.07;;;23.60;67.60;;;;;;5024038;28;20061;-63
2022/07/13 06:17:23;;;;;;;8.82;5.60;;;23.60;67.40;;;;;;5020822;28;20113;-62
2022/07/13 06:19:49;;;;;;;9.57;5.70;;;23.60;67.30;;;;;;5020842;28;20032;-62
2022/07/13 06:22:15;;;;;;;9.70;5.93;;;23.60;67.10;;;;;;5014014;28;20038;-62
2022/07/13 06:24:42;;;;;;;8.70;5.72;;;23.60;66.90;;;;;;5017423;28;20037;-62
2022/07/13 06:27:08;;;;;;;10.70;6.07;;;23.70;67.00;;;;;;5012125;28;20026;-62
2022/07/13 06:29:34;;;;;;;9.77;6.15;;;23.80;67.00;;;;;;5021334;28;20065;-62
2022/07/13 06:31:59;;;;;;;11.30;6.30;;;23.80;67.10;;;;;;5013899;28;20168;-62
2022/07/13 06:34:25;;;;;;;12.25;6.75;;;23.90;66.80;;;;;;5015922;28;20087;-62
2022/07/13 06:36:51;;;;;;;10.85;6.22;;;23.90;66.50;;;;;;5013120;28;20041;-62
2022/07/13 06:39:17;;;;;;;10.93;6.97;;;23.90;66.30;;;;;;5015841;28;20108;-62
2022/07/13 06:41:42;;;;;;;10.95;6.70;;;23.90;66.20;;;;;;5019189;28;20083;-62
2022/07/13 06:44:08;;;;;;;11.10;6.55;;;24.00;66.10;;;;;;5017795;28;20033;-62
2022/07/13 06:46:34;;;;;;;10.07;7.22;;;24.10;65.70;;;;;;5018014;28;20018;-62
2022/07/13 06:48:59;;;;;;;10.18;7.13;;;24.20;65.20;;;;;;5017787;28;20026;-62
2022/07/13 06:51:25;;;;;;;10.45;6.70;;;24.30;64.90;;;;;;5016996;28;20145;-62
2022/07/13 06:53:51;;;;;;;10.68;7.10;;;24.30;64.80;;;;;;5025135;28;20030;-62
2022/07/13 06:56:16;;;;;;;11.40;7.53;;;24.30;64.90;;;;;;5018957;28;20410;-62
2022/07/13 06:58:42;;;;;;;11.30;7.32;;;24.40;65.00;;;;;;5023915;28;20112;-62
2022/07/13 07:01:07;;;;;;;15.23;7.05;;;24.40;65.00;;;;;;5037728;28;20065;-62
2022/07/13 07:03:33;;;;;;;11.23;6.82;;;24.40;65.00;;;;;;5036136;28;20044;-61
2022/07/13 07:05:59;;;;;;;11.93;7.55;;;24.40;65.10;;;;;;5037685;28;20036;-62
2022/07/13 07:08:24;;;;;;;13.40;7.88;;;24.50;65.10;;;;;;5021857;28;20061;-61
2022/07/13 07:10:50;;;;;;;11.77;7.28;;;24.50;65.00;;;;;;5036728;28;20043;-61
2022/07/13 07:13:16;;;;;;;11.73;7.75;;;24.50;64.90;;;;;;5036941;28;20037;-61
2022/07/13 07:15:41;;;;;;;10.65;7.13;;;24.50;64.90;;;;;;5036256;28;20026;-61
2022/07/13 07:18:07;;;;;;;11.65;7.30;;;24.60;64.90;;;;;;5037189;28;20034;-61
2022/07/13 07:20:33;;;;;;;11.65;7.90;;;24.90;64.50;;;;;;5034312;28;20030;-62
2022/07/13 07:23:00;;;;;;;11.20;7.72;;;25.00;63.70;;;;;;5016283;28;20033;-62
2022/07/13 07:25:26;;;;;;;12.70;7.63;;;25.10;63.40;;;;;;5017123;28;20116;-61
2022/07/13 07:27:52;;;;;;;11.57;6.88;;;25.10;63.00;;;;;;5017417;28;20053;-61
2022/07/13 07:30:17;;;;;;;12.48;6.90;;;25.10;62.90;;;;;;5017379;28;20026;-61
2022/07/13 07:32:43;;;;;;;9.85;6.47;;;25.10;62.90;;;;;;5032765;28;20030;-62
2022/07/13 07:35:09;;;;;;;10.30;6.07;;;25.50;62.50;;;;;;5016890;28;20026;-62
2022/07/13 07:37:37;;;;;;;10.55;7.00;;;25.60;62.10;;;;;;5015614;28;20450;-62
2022/07/13 07:40:03;;;;;;;9.27;6.22;;;25.70;61.60;;;;;;5016768;28;20449;-62
2022/07/13 07:42:29;;;;;;;8.80;6.00;;;26.00;61.10;;;;;;5016309;28;20037;-62
2022/07/13 07:44:56;;;;;;;10.65;5.65;;;26.10;60.60;;;;;;5016276;28;20088;-62
2022/07/13 07:47:25;;;;;;;10.32;6.20;;;26.20;60.40;;;;;;5016256;28;20065;-62
2022/07/13 07:49:52;;;;;;;9.65;6.22;;;26.20;60.30;;;;;;5016785;28;20374;-62
2022/07/13 07:52:18;;;;;;;8.43;5.20;;;26.30;60.20;;;;;;5015347;28;20467;-62
2022/07/13 07:54:45;;;;;;;9.05;5.28;;;26.20;60.00;;;;;;5015913;28;20348;-61
2022/07/13 07:57:11;;;;;;;9.75;5.38;;;26.10;59.90;;;;;;5016319;28;20428;-62
2022/07/13 07:59:37;;;;;;;10.90;5.30;;;26.10;60.00;;;;;;5016659;28;20121;-62
2022/07/13 08:02:02;;;;;;;9.57;5.35;;;26.10;60.00;;;;;;5016687;28;20374;-62
2022/07/13 08:04:28;;;;;;;8.20;4.57;;;26.00;60.00;;;;;;5015422;28;20092;-62
2022/07/13 08:06:53;;;;;;;7.20;3.92;;;26.00;60.00;;;;;;5015099;28;20375;-62
2022/07/13 08:09:19;;;;;;;9.45;5.32;;;26.20;60.10;;;;;;5015521;28;20037;-62
2022/07/13 08:11:45;;;;;;;10.35;5.43;;;26.20;59.90;;;;;;5015654;28;20368;-62
2022/07/13 08:14:11;;;;;;;8.93;4.60;;;26.20;59.80;;;;;;5031653;28;20018;-62
2022/07/13 08:16:37;;;;;;;7.97;4.45;;;26.20;59.80;;;;;;5015688;28;20104;-61
2022/07/13 08:19:03;;;;;;;9.05;4.60;;;26.20;59.90;;;;;;5015999;28;20359;-62
2022/07/13 08:21:29;;;;;;;8.48;4.70;;;26.10;60.20;;;;;;5016029;28;20026;-62
2022/07/13 08:23:54;;;;;;;8.00;4.20;;;26.20;60.30;;;;;;5005432;28;20045;-62
2022/07/13 08:26:27;;;;;;;9.15;4.63;;;26.50;59.90;;;;;;5016255;28;20104;-62
2022/07/13 08:28:54;;;;;;;7.90;4.18;;;26.90;59.30;;;;;;5016087;28;20033;-63
2022/07/13 08:31:21;;;;;;;7.78;4.10;;;27.10;58.80;;;;;;5015877;28;20029;-62
2022/07/13 08:39:17;;;;;;;7.20;3.78;;;27.90;57.50;;;;;;5014990;28;20038;-62
2022/07/13 08:41:43;;;;;;;8.60;4.18;;;28.20;57.00;;;;;;5015735;28;20033;-62
2022/07/13 08:44:08;;;;;;;7.13;4.00;;;28.50;56.70;;;;;;5014900;28;20557;-62
2022/07/13 08:46:34;;;;;;;8.50;4.07;;;28.70;56.40;;;;;;5015506;28;20017;-62
2022/07/13 08:49:01;;;;;;;8.02;4.03;;;28.60;56.40;;;;;;5015316;28;20018;-62
2022/07/13 08:51:27;;;;;;;9.23;4.43;;;28.50;56.40;;;;;;5015283;28;20028;-62
2022/07/13 08:53:56;;;;;;;7.57;3.50;;;28.60;56.40;;;;;;5020194;28;20082;-63
2022/07/13 08:56:22;;;;;;;7.78;4.10;;;28.80;56.00;;;;;;5028435;28;20451;-63
2022/07/13 08:58:48;;;;;;;7.03;3.75;;;28.90;55.80;;;;;;5026953;28;20025;-62
2022/07/13 09:01:14;;;;;;;9.70;4.75;;;29.20;55.40;;;;;;5034844;28;20037;-63
2022/07/13 09:03:41;;;;;;;7.60;4.15;;;29.30;54.80;;;;;;5020147;28;20075;-62
2022/07/13 09:06:07;;;;;;;7.90;4.20;;;29.30;54.60;;;;;;5025838;28;20338;-62
2022/07/13 09:08:50;;;;;;;6.15;3.45;;;29.40;54.50;;;;;;5022487;28;20485;-62
2022/07/13 09:11:23;;;;;;;8.70;4.70;;;29.40;54.30;;;;;;5025791;28;20437;-62
2022/07/13 09:13:49;;;;;;;7.85;4.07;;;29.40;54.20;;;;;;5022685;28;20033;-62
2022/07/13 09:16:20;;;;;;;7.65;4.47;;;29.20;54.30;;;;;;5024205;28;20469;-64
2022/07/13 09:18:48;;;;;;;6.43;3.85;;;29.10;54.20;;;;;;5021783;28;20029;-63
2022/07/13 09:21:15;;;;;;;7.40;4.00;;;29.10;54.50;;;;;;5034427;28;20041;-62
2022/07/13 09:23:41;;;;;;;6.95;3.85;;;29.10;54.50;;;;;;5016071;28;20044;-62
2022/07/13 09:26:07;;;;;;;6.30;3.30;;;29.10;54.40;;;;;;5014151;28;20030;-62
2022/07/13 09:28:44;;;;;;;7.63;3.90;;;29.20;54.30;;;;;;5014613;28;20512;-62
2022/07/13 09:31:10;;;;;;;7.85;3.90;;;29.40;54.00;;;;;;5013628;28;20165;-62
2022/07/13 09:33:38;;;;;;;9.02;3.85;;;29.40;53.90;;;;;;5014025;28;20029;-61
2022/07/13 09:36:15;;;;;;;6.65;3.47;;;29.50;53.60;;;;;;5014297;28;20116;-62
2022/07/13 09:38:53;;;;;;;7.32;3.65;;;29.60;53.20;;;;;;5013710;28;20029;-62
2022/07/13 09:41:24;;;;;;;6.10;3.40;;;29.80;53.20;;;;;;5014456;28;20038;-62
2022/07/13 09:47:01;;;;;;;6.78;3.55;;;30.30;52.60;;;;;;5014699;28;20022;-62
2022/07/13 09:49:34;;;;;;;8.18;4.10;;;30.50;52.20;;;;;;5014742;28;20467;-62
2022/07/13 09:52:02;;;;;;;11.48;3.85;;;30.70;51.70;;;;;;5014192;28;20443;-62
2022/07/13 09:54:32;;;;;;;7.68;3.60;;;30.80;51.40;;;;;;5020657;28;20018;-62
2022/07/13 09:57:00;;;;;;;8.38;4.22;;;30.90;51.00;;;;;;5031983;28;20037;-62
2022/07/13 09:59:28;;;;;;;8.45;3.50;;;30.90;50.60;;;;;;5024122;28;20477;-62
2022/07/13 10:01:54;;;;;;;8.40;3.85;;;31.00;50.50;;;;;;5031229;28;20036;-62
2022/07/13 10:04:22;;;;;;;7.88;4.30;;;31.20;50.30;;;;;;5017309;28;20068;-62
2022/07/13 10:06:49;;;;;;;6.68;3.90;;;31.30;49.80;;;;;;5028432;28;20405;-62
2022/07/13 10:09:18;;;;;;;8.98;4.75;;;31.40;49.60;;;;;;5018117;28;20115;-62
2022/07/13 10:11:44;;;;;;;8.35;3.95;;;31.40;49.40;;;;;;5019539;28;20081;-62
2022/07/13 10:14:10;;;;;;;6.13;3.30;;;31.50;49.50;;;;;;5014263;28;20032;-62
2022/07/13 10:16:36;;;;;;;5.93;3.17;;;31.60;49.40;;;;;;5025872;28;20436;-62
2022/07/13 10:19:07;;;;;;;7.38;3.47;;;31.70;48.90;;;;;;5026257;28;20022;-62
2022/07/13 10:21:51;;;;;;;;;;;31.80;48.50;;;;;;5022196;28;20026;-62
2022/07/13 10:24:18;;;;;;;6.60;2.80;;;31.80;48.80;;;;;;5013828;28;19979;-62
2022/07/13 10:26:47;;;;;;;5.07;2.50;;;31.80;48.20;;;;;;5018192;28;20041;-62
2022/07/13 10:29:15;;;;;;;5.50;2.67;;;31.80;47.90;;;;;;5018611;28;20351;-63
2022/07/13 10:31:41;;;;;;;5.93;2.92;;;31.90;47.70;;;;;;5018593;28;20104;-62
2022/07/13 10:34:12;;;;;;;5.78;2.50;;;32.00;47.60;;;;;;5018731;28;20041;-62
2022/07/13 10:36:57;;;;;;;6.03;2.83;;;32.00;47.40;;;;;;5017075;28;20118;-62
2022/07/13 10:39:25;;;;;;;6.43;2.88;;;32.10;47.20;;;;;;5016772;28;20037;-62
2022/07/13 10:41:55;;;;;;;5.32;2.63;;;32.10;47.00;;;;;;5016387;28;20061;-62
2022/07/13 10:44:42;;;;;;;6.07;3.00;;;32.20;46.90;;;;;;5017072;28;20049;-62
2022/07/13 10:47:11;;;;;;;5.95;3.05;;;32.20;46.80;;;;;;5033745;28;20068;-62
2022/07/13 10:49:50;;;;;;;8.73;3.33;;;32.10;46.80;;;;;;5019864;28;20025;-62
2022/07/13 10:52:19;;;;;;;5.65;2.63;;;32.20;47.30;;;;;;5028113;28;20034;-62
2022/07/13 10:55:03;;;;;;;4.80;2.45;;;32.10;46.80;;;;;;5017284;28;20038;-62
2022/07/13 10:57:30;;;;;;;5.22;2.78;;;32.20;46.80;;;;;;5014442;28;20042;-62
2022/07/13 11:00:23;;;;;;;6.47;3.20;;;32.20;46.60;;;;;;5012576;28;20033;-62
2022/07/13 11:02:50;;;;;;;6.90;2.83;;;32.10;46.40;;;;;;5011822;28;20025;-62
2022/07/13 11:05:18;;;;;;;5.70;2.78;;;32.10;46.70;;;;;;5015713;28;20108;-62
2022/07/13 11:07:49;;;;;;;6.85;2.92;;;32.10;46.70;;;;;;5015952;28;20040;-62
2022/07/13 11:10:26;;;;;;;6.15;2.72;;;32.10;46.70;;;;;;5015728;28;20112;-62
2022/07/13 11:13:00;;;;;;;8.25;3.10;;;32.00;46.90;;;;;;5011252;28;20140;-62
2022/07/13 11:15:53;;;;;;;6.20;2.75;;;32.00;47.40;;;;;;5013642;28;20041;-62
2022/07/13 11:18:22;;;;;;;6.95;3.10;;;32.10;47.00;;;;;;5013747;28;20044;-62
2022/07/13 11:21:14;;;;;;;6.03;3.08;;;32.20;47.00;;;;;;5015680;28;20062;-62
2022/07/13 11:26:54;;;;;;;6.53;2.90;;;32.10;46.60;;;;;;5010241;28;20105;-62
2022/07/13 11:29:44;;;;;;;5.40;2.70;;;32.10;46.70;;;;;;5012323;28;20049;-62
2022/07/13 11:32:10;;;;;;;7.70;2.67;;;32.00;46.40;;;;;;5013644;28;20038;-61
2022/07/13 11:34:36;;;;;;;4.75;2.40;;;31.80;46.30;;;;;;5012481;28;20026;-62
2022/07/13 11:37:03;;;;;;;4.85;2.00;;;31.70;46.30;;;;;;5015172;28;20034;-62
2022/07/13 11:39:31;;;;;;;5.82;1.90;;;31.50;45.80;;;;;;5013985;28;20048;-62
2022/07/13 11:41:59;;;;;;;4.28;2.08;;;31.40;45.20;;;;;;5017155;28;20339;-62
2022/07/13 11:44:27;;;;;;;4.18;2.05;;;31.30;45.00;;;;;;5015332;28;20466;-62
2022/07/13 11:46:54;;;;;;;4.20;1.98;;;31.20;44.70;;;;;;5015529;28;20113;-62
2022/07/13 11:49:21;;;;;;;3.85;2.08;;;31.10;44.60;;;;;;5014727;28;20029;-62
2022/07/13 11:51:47;;;;;;;5.22;1.95;;;31.00;44.50;;;;;;5014909;28;20501;-63
2022/07/13 11:54:18;;;;;;;4.85;1.80;;;30.90;44.30;;;;;;5017249;28;20858;-62
2022/07/13 11:56:57;;;;;;;4.40;1.70;;;30.80;44.00;;;;;;5021025;28;20075;-61
2022/07/13 11:59:42;;;;;;;3.70;1.90;;;30.70;43.60;;;;;;5032136;28;20475;-62
2022/07/13 12:02:10;;;;;;;4.32;1.73;;;30.70;43.50;;;;;;5019831;28;20057;-62
2022/07/13 12:04:41;;;;;;;3.88;1.80;;;30.70;43.30;;;;;;5027581;28;20025;-62
2022/07/13 12:07:13;;;;;;;3.77;1.60;;;30.80;42.80;;;;;;5024870;28;20429;-62
2022/07/13 12:09:53;;;;;;;4.05;1.75;;;30.90;42.50;;;;;;5022169;28;20395;-62
2022/07/13 12:12:25;;;;;;;6.27;1.53;;;30.90;41.90;;;;;;5019151;28;20141;-62
2022/07/13 12:14:52;;;;;;;4.25;1.90;;;31.00;41.80;;;;;;5020844;28;20034;-62
2022/07/13 12:17:18;;;;;;;2.65;1.50;;;30.90;41.30;;;;;;5021516;28;20029;-62
2022/07/13 12:19:44;;;;;;;5.45;1.70;;;30.90;41.30;;;;;;5026699;28;20029;-62
2022/07/13 12:22:09;;;;;;;4.38;1.85;;;31.00;41.50;;;;;;5012259;28;20029;-63
2022/07/13 12:24:41;;;;;;;5.47;1.77;;;31.00;41.30;;;;;;5015618;28;20390;-62
2022/07/13 12:27:07;;;;;;;3.78;1.85;;;31.00;41.30;;;;;;5030303;28;20363;-62
2022/07/13 12:29:33;;;;;;;4.88;1.80;;;31.00;41.40;;;;;;5014390;28;20049;-62
2022/07/13 12:32:03;;;;;;;3.40;1.73;;;31.00;41.60;;;;;;5013847;28;20025;-62
2022/07/13 12:34:29;;;;;;;3.63;1.45;;;31.00;41.70;;;;;;5015303;28;20433;-62
2022/07/13 12:36:54;;;;;;;3.38;1.80;;;31.00;41.70;;;;;;5014946;28;20109;-62
2022/07/13 12:39:36;;;;;;;5.68;1.90;;;31.00;41.80;;;;;;5011850;28;20037;-62
2022/07/13 12:42:02;;;;;;;3.47;1.80;;;31.10;41.70;;;;;;5013465;28;20029;-62
2022/07/13 12:44:31;;;;;;;4.22;1.80;;;31.10;41.70;;;;;;5013113;28;20060;-63
2022/07/13 12:46:59;;;;;;;7.03;2.22;;;31.00;42.40;;;;;;5011597;28;20455;-62
2022/07/13 12:49:36;;;;;;;3.55;1.95;;;31.10;41.80;;;;;;5010683;28;20363;-62
2022/07/13 12:52:10;;;;;;;4.50;1.90;;;31.00;41.60;;;;;;5011798;28;20030;-62
2022/07/13 12:54:48;;;;;;;4.05;2.00;;;30.90;41.70;;;;;;5010184;28;20050;-62
2022/07/13 12:57:27;;;;;;;3.67;1.88;;;30.90;42.00;;;;;;5012232;28;20030;-66
2022/07/13 13:00:07;;;;;;;4.78;2.05;;;30.90;41.80;;;;;;5012039;28;20018;-66